createdAt,value
2017-10-02T00:02:08.978Z,6.00
2017-10-02T00:04:35.635Z,6.85
2017-10-02T00:07:02.332Z,6.03
2017-10-02T00:09:28.991Z,6.05
2017-10-02T00:11:55.643Z,6.45
2017-10-02T00:14:22.299Z,7.00
2017-10-02T00:16:48.963Z,6.60
2017-10-02T00:19:15.627Z,6.12
2017-10-02T00:21:42.293Z,6.85
2017-10-02T00:24:08.947Z,6.87
2017-10-02T00:26:35.599Z,7.10
2017-10-02T00:29:02.294Z,6.72
2017-10-02T00:31:28.956Z,6.62
2017-10-02T00:33:55.635Z,7.15
2017-10-02T00:36:22.283Z,6.68
2017-10-02T00:38:48.967Z,6.62
2017-10-02T00:41:15.635Z,5.90
2017-10-02T00:43:42.319Z,6.00
2017-10-02T00:46:08.975Z,6.05
2017-10-02T00:48:35.638Z,5.93
2017-10-02T00:51:02.299Z,5.53
2017-10-02T00:53:28.951Z,5.75
2017-10-02T00:55:55.612Z,5.70
2017-10-02T00:58:22.273Z,5.50
2017-10-02T01:00:48.983Z,5.60
2017-10-02T01:03:15.635Z,5.53
2017-10-02T01:05:42.301Z,5.60
2017-10-02T01:08:08.959Z,5.47
2017-10-02T01:10:35.639Z,5.60
2017-10-02T01:13:02.296Z,5.72
2017-10-02T01:15:28.975Z,6.05
2017-10-02T01:17:55.631Z,5.57
2017-10-02T01:20:22.315Z,6.35
2017-10-02T01:22:48.983Z,5.55
2017-10-02T01:25:15.638Z,5.60
2017-10-02T01:27:42.291Z,5.55
2017-10-02T01:30:08.948Z,5.93
2017-10-02T01:32:35.603Z,5.40
2017-10-02T01:35:02.259Z,5.00
2017-10-02T01:37:28.949Z,5.50
2017-10-02T01:39:55.603Z,5.43
2017-10-02T01:42:22.280Z,5.50
2017-10-02T01:44:48.936Z,6.25
2017-10-02T01:47:15.619Z,6.25
2017-10-02T01:49:42.276Z,6.20
2017-10-02T01:52:08.960Z,6.22
2017-10-02T01:54:35.620Z,5.85
2017-10-02T01:57:02.309Z,6.87
2017-10-02T01:59:28.970Z,5.80
2017-10-02T02:01:55.619Z,5.80
2017-10-02T02:04:22.280Z,5.85
2017-10-02T02:06:48.934Z,6.75
2017-10-02T02:09:15.604Z,5.30
2017-10-02T02:11:42.264Z,5.50
2017-10-02T02:14:08.920Z,6.60
2017-10-02T02:16:35.570Z,5.68
2017-10-02T02:19:02.223Z,5.95
2017-10-02T02:21:28.879Z,5.35
2017-10-02T02:23:55.571Z,5.37
2017-10-02T02:26:22.231Z,5.50
2017-10-02T02:28:48.892Z,5.82
2017-10-02T02:31:15.543Z,5.05
2017-10-02T02:33:42.204Z,5.62
2017-10-02T02:36:08.871Z,6.03
2017-10-02T02:38:35.524Z,6.07
2017-10-02T02:41:02.183Z,5.75
2017-10-02T02:43:28.840Z,6.05
2017-10-02T02:45:55.507Z,5.07
2017-10-02T02:48:22.212Z,5.00
2017-10-02T02:50:48.900Z,5.47
2017-10-02T02:53:15.559Z,4.70
2017-10-02T02:55:42.215Z,6.57
2017-10-02T02:58:08.875Z,5.55
2017-10-02T03:00:35.524Z,5.40
2017-10-02T03:03:02.187Z,5.07
2017-10-02T03:05:28.902Z,4.97
2017-10-02T03:07:55.560Z,5.72
2017-10-02T03:10:22.212Z,5.05
2017-10-02T03:12:48.871Z,5.05
2017-10-02T03:15:15.531Z,5.05
2017-10-02T03:17:42.195Z,5.93
2017-10-02T03:20:08.843Z,5.25
2017-10-02T03:22:35.539Z,4.70
2017-10-02T03:25:02.190Z,5.20
2017-10-02T03:27:28.855Z,6.12
2017-10-02T03:29:55.515Z,4.85
2017-10-02T03:32:22.181Z,5.60
2017-10-02T03:34:48.831Z,5.03
2017-10-02T03:37:15.487Z,5.35
2017-10-02T03:39:42.137Z,5.25
2017-10-02T03:42:08.796Z,5.78
2017-10-02T03:44:35.451Z,6.40
2017-10-02T03:47:02.112Z,5.72
2017-10-02T03:49:28.775Z,5.40
2017-10-02T03:51:55.456Z,5.70
2017-10-02T03:54:22.113Z,5.10
2017-10-02T03:56:48.798Z,5.65
2017-10-02T03:59:15.473Z,6.37
2017-10-02T04:01:42.159Z,5.47
2017-10-02T04:04:08.815Z,5.45
2017-10-02T04:06:35.496Z,5.10
2017-10-02T04:09:02.158Z,5.20
2017-10-02T04:11:28.839Z,5.55
2017-10-02T04:13:55.495Z,6.03
2017-10-02T04:16:22.192Z,5.70
2017-10-02T04:18:48.842Z,5.90
2017-10-02T04:21:15.499Z,5.78
2017-10-02T04:23:42.155Z,6.28
2017-10-02T04:26:08.822Z,6.82
2017-10-02T04:28:35.503Z,6.10
2017-10-02T04:31:02.164Z,6.60
2017-10-02T04:33:28.842Z,5.45
2017-10-02T04:35:55.499Z,6.00
2017-10-02T04:38:22.179Z,6.95
2017-10-02T04:40:48.829Z,6.28
2017-10-02T04:43:15.535Z,6.35
2017-10-02T04:45:42.191Z,6.05
2017-10-02T04:48:08.847Z,6.70
2017-10-02T04:50:35.498Z,5.55
2017-10-02T04:53:02.157Z,5.75
2017-10-02T04:55:28.835Z,6.10
2017-10-02T04:57:55.499Z,6.78
2017-10-02T05:00:22.175Z,6.80
2017-10-02T05:02:48.831Z,6.15
2017-10-02T05:05:15.541Z,5.70
2017-10-02T05:07:42.190Z,6.22
2017-10-02T05:10:08.862Z,6.05
2017-10-02T05:12:35.519Z,6.22
2017-10-02T05:15:02.223Z,6.68
2017-10-02T05:17:28.879Z,5.95
2017-10-02T05:19:55.540Z,6.30
2017-10-02T05:22:22.199Z,5.57
2017-10-02T05:24:48.851Z,6.05
2017-10-02T05:27:15.530Z,6.20
2017-10-02T05:29:42.184Z,6.50
2017-10-02T05:32:08.872Z,5.82
2017-10-02T05:34:35.534Z,6.50
2017-10-02T05:37:02.211Z,6.50
2017-10-02T05:39:28.863Z,6.00
2017-10-02T05:41:55.534Z,6.12
2017-10-02T05:44:22.192Z,6.00
2017-10-02T05:46:48.879Z,6.07
2017-10-02T05:49:15.536Z,6.30
2017-10-02T05:51:42.219Z,6.70
2017-10-02T05:54:08.888Z,6.95
2017-10-02T05:56:35.547Z,7.00
2017-10-02T05:59:02.211Z,7.07
2017-10-02T06:01:28.875Z,7.03
2017-10-02T06:03:55.558Z,7.20
2017-10-02T06:06:22.211Z,6.78
2017-10-02T06:08:48.892Z,6.05
2017-10-02T06:11:15.565Z,7.47
2017-10-02T06:13:42.247Z,7.12
2017-10-02T06:16:08.940Z,6.95
2017-10-02T06:18:35.639Z,6.47
2017-10-02T06:21:02.301Z,6.15
2017-10-02T06:23:28.978Z,6.50
2017-10-02T06:25:55.636Z,6.30
2017-10-02T06:28:22.301Z,6.32
2017-10-02T06:30:48.960Z,6.80
2017-10-02T06:33:15.627Z,6.40
2017-10-02T06:35:42.311Z,6.75
2017-10-02T06:38:09.002Z,6.20
2017-10-02T06:40:35.686Z,7.35
2017-10-02T06:43:02.340Z,7.40
2017-10-02T06:45:29.028Z,6.47
2017-10-02T06:47:55.700Z,6.87
2017-10-02T06:50:22.387Z,6.97
2017-10-02T06:52:49.034Z,6.30
2017-10-02T06:55:15.727Z,6.10
2017-10-02T06:57:42.387Z,6.43
2017-10-02T07:00:09.044Z,7.00
2017-10-02T07:02:35.703Z,6.07
2017-10-02T07:05:02.360Z,7.15
2017-10-02T07:07:29.035Z,6.57
2017-10-02T07:09:55.700Z,7.25
2017-10-02T07:12:22.399Z,6.75
2017-10-02T07:14:49.075Z,6.80
2017-10-02T07:17:15.759Z,6.75
2017-10-02T07:19:42.416Z,5.90
2017-10-02T07:22:09.105Z,7.50
2017-10-02T07:24:35.776Z,6.35
2017-10-02T07:27:02.471Z,6.50
2017-10-02T07:29:29.132Z,6.10
2017-10-02T07:31:55.788Z,6.40
2017-10-02T07:34:22.449Z,6.78
2017-10-02T07:36:49.111Z,6.30
2017-10-02T07:39:15.767Z,6.95
2017-10-02T07:41:42.428Z,6.53
2017-10-02T07:44:09.088Z,6.90
2017-10-02T07:46:35.747Z,6.35
2017-10-02T07:49:02.412Z,6.15
2017-10-02T07:51:29.085Z,5.95
2017-10-02T07:53:55.767Z,6.28
2017-10-02T07:56:22.424Z,7.03
2017-10-02T07:58:49.107Z,7.43
2017-10-02T08:01:15.774Z,6.30
2017-10-02T08:03:42.480Z,6.00
2017-10-02T08:06:09.144Z,5.80
2017-10-02T08:08:35.810Z,6.50
2017-10-02T08:11:02.471Z,5.53
2017-10-02T08:13:29.124Z,5.30
2017-10-02T08:15:55.779Z,6.60
2017-10-02T08:18:22.431Z,6.65
2017-10-02T08:20:49.087Z,6.07
2017-10-02T08:23:15.743Z,6.47
2017-10-02T08:25:42.420Z,6.20
2017-10-02T08:28:09.095Z,5.80
2017-10-02T08:30:35.806Z,5.55
2017-10-02T08:33:02.475Z,5.95
2017-10-02T08:35:29.136Z,5.85
2017-10-02T08:37:55.795Z,5.60
2017-10-02T08:40:22.459Z,6.12
2017-10-02T08:42:49.119Z,6.10
2017-10-02T08:45:15.775Z,6.50
2017-10-02T08:47:42.427Z,6.03
2017-10-02T08:50:09.082Z,6.55
2017-10-02T08:52:35.735Z,6.80
2017-10-02T08:55:02.395Z,7.37
2017-10-02T08:57:29.055Z,7.10
2017-10-02T08:59:55.715Z,6.20
2017-10-02T09:02:22.376Z,7.03
2017-10-02T09:04:49.039Z,7.60
2017-10-02T09:07:15.695Z,6.85
2017-10-02T09:09:42.351Z,5.70
2017-10-02T09:12:09.007Z,6.28
2017-10-02T09:14:35.692Z,5.90
2017-10-02T09:17:02.351Z,5.47
2017-10-02T09:19:29.032Z,4.60
2017-10-02T09:21:55.688Z,5.85
2017-10-02T09:24:22.372Z,5.70
2017-10-02T09:26:49.031Z,6.62
2017-10-02T09:29:15.707Z,5.50
2017-10-02T09:31:42.460Z,5.03
2017-10-02T09:34:09.142Z,5.87
2017-10-02T09:36:35.795Z,4.65
2017-10-02T09:39:02.484Z,6.20
2017-10-02T09:41:29.148Z,5.65
2017-10-02T09:43:55.839Z,5.45
2017-10-02T09:46:22.504Z,6.85
2017-10-02T09:48:49.168Z,7.28
2017-10-02T09:51:15.829Z,6.03
2017-10-02T09:53:42.488Z,6.53
2017-10-02T09:56:09.195Z,6.10
2017-10-02T09:58:35.857Z,6.75
2017-10-02T10:01:02.540Z,6.60
2017-10-02T10:03:29.206Z,5.90
2017-10-02T10:05:55.883Z,7.32
2017-10-02T10:08:22.544Z,6.47
2017-10-02T10:10:49.231Z,6.30
2017-10-02T10:13:15.888Z,6.03
2017-10-02T10:15:42.582Z,5.70
2017-10-02T10:18:09.295Z,6.85
2017-10-02T10:20:35.983Z,7.07
2017-10-02T10:23:02.639Z,6.78
2017-10-02T10:25:29.296Z,6.45
2017-10-02T10:27:55.956Z,6.60
2017-10-02T10:30:22.611Z,6.05
2017-10-02T10:32:49.310Z,6.55
2017-10-02T10:35:15.972Z,5.85
2017-10-02T10:37:42.657Z,6.72
2017-10-02T10:40:09.311Z,6.28
2017-10-02T10:42:35.992Z,6.72
2017-10-02T10:45:02.651Z,6.55
2017-10-02T10:47:29.328Z,5.93
2017-10-02T10:49:55.996Z,6.37
2017-10-02T10:52:22.688Z,5.57
2017-10-02T10:54:49.342Z,5.65
2017-10-02T10:57:15.998Z,6.18
2017-10-02T10:59:42.745Z,5.75
2017-10-02T11:02:09.399Z,5.90
2017-10-02T11:04:36.075Z,5.30
2017-10-02T11:07:02.731Z,6.18
2017-10-02T11:09:29.412Z,6.20
2017-10-02T11:11:56.067Z,5.75
2017-10-02T11:14:22.748Z,6.80
2017-10-02T11:16:49.407Z,6.07
2017-10-02T11:19:16.095Z,6.68
2017-10-02T11:21:42.755Z,5.97
2017-10-02T11:24:09.453Z,6.60
2017-10-02T11:26:36.114Z,6.30
2017-10-02T11:29:02.767Z,6.12
2017-10-02T11:31:29.427Z,6.60
2017-10-02T11:33:56.085Z,6.60
2017-10-02T11:36:22.763Z,6.53
2017-10-02T11:38:49.424Z,7.30
2017-10-02T11:41:16.108Z,5.62
2017-10-02T11:43:42.771Z,6.78
2017-10-02T11:46:09.491Z,6.47
2017-10-02T11:48:36.151Z,6.00
2017-10-02T11:51:02.835Z,6.47
2017-10-02T11:53:29.487Z,5.40
2017-10-02T11:55:56.167Z,5.93
2017-10-02T11:58:22.938Z,5.68
2017-10-02T12:00:49.597Z,5.75
2017-10-02T12:03:16.256Z,5.75
2017-10-02T12:05:42.916Z,5.80
2017-10-02T12:08:09.599Z,5.87
2017-10-02T12:10:36.259Z,5.68
2017-10-02T12:13:02.943Z,5.60
2017-10-02T12:15:29.600Z,5.93
2017-10-02T12:17:56.333Z,5.43
2017-10-02T12:20:22.992Z,5.40
2017-10-02T12:22:49.700Z,5.45
2017-10-02T12:25:16.364Z,5.28
2017-10-02T12:27:43.033Z,5.82
2017-10-02T12:30:09.699Z,5.70
2017-10-02T12:32:36.363Z,5.80
2017-10-02T12:35:03.056Z,4.85
2017-10-02T12:37:29.723Z,5.32
2017-10-02T12:39:56.431Z,5.50
2017-10-02T12:42:23.104Z,6.00
2017-10-02T12:44:49.767Z,6.30
2017-10-02T12:47:16.435Z,7.68
2017-10-02T12:49:43.099Z,7.18
2017-10-02T12:52:09.762Z,7.65
2017-10-02T12:54:36.423Z,7.90
2017-10-02T12:57:03.096Z,7.00
2017-10-02T12:59:29.756Z,7.13
2017-10-02T13:01:56.785Z,7.50
2017-10-02T13:04:23.451Z,7.22
2017-10-02T13:06:50.176Z,8.75
2017-10-02T13:09:16.832Z,6.60
2017-10-02T13:11:43.530Z,7.85
2017-10-02T13:14:10.191Z,7.70
2017-10-02T13:16:36.860Z,9.02
2017-10-02T13:19:03.523Z,7.85
2017-10-02T13:21:30.187Z,8.00
2017-10-02T13:23:56.847Z,8.45
2017-10-02T13:26:23.516Z,8.25
2017-10-02T13:28:50.178Z,8.55
2017-10-02T13:31:16.840Z,9.55
2017-10-02T13:33:43.504Z,9.35
2017-10-02T13:36:10.167Z,8.90
2017-10-02T13:38:36.854Z,9.02
2017-10-02T13:41:03.519Z,9.00
2017-10-02T13:43:30.208Z,8.45
2017-10-02T13:45:56.878Z,8.15
2017-10-02T13:48:23.611Z,8.73
2017-10-02T13:50:50.280Z,9.05
2017-10-02T13:53:16.942Z,9.10
2017-10-02T13:55:43.615Z,8.55
2017-10-02T13:58:10.278Z,9.27
2017-10-02T14:00:36.978Z,9.68
2017-10-02T14:03:03.647Z,9.07
2017-10-02T14:05:30.310Z,9.20
2017-10-02T14:07:56.983Z,10.20
2017-10-02T14:10:23.659Z,10.82
2017-10-02T14:12:50.327Z,10.00
2017-10-02T14:15:16.992Z,9.65
2017-10-02T14:17:43.656Z,9.68
2017-10-02T14:20:10.327Z,9.93
2017-10-02T14:22:37.003Z,10.75
2017-10-02T14:25:03.687Z,10.57
2017-10-02T14:27:30.359Z,10.40
2017-10-02T14:29:57.039Z,10.10
2017-10-02T14:32:23.706Z,10.65
2017-10-02T14:34:50.413Z,11.40
2017-10-02T14:37:17.084Z,10.73
2017-10-02T14:39:43.763Z,10.90
2017-10-02T14:42:10.452Z,10.50
2017-10-02T14:44:37.123Z,10.90
2017-10-02T14:47:03.801Z,10.88
2017-10-02T14:49:30.475Z,9.82
2017-10-02T14:51:57.161Z,10.32
2017-10-02T14:54:23.839Z,10.35
2017-10-02T14:56:50.511Z,11.25
2017-10-02T14:59:17.179Z,10.43
2017-10-02T15:01:43.879Z,10.73
2017-10-02T15:04:10.552Z,10.10
2017-10-02T15:06:37.255Z,10.00
2017-10-02T15:09:03.955Z,11.30
2017-10-02T15:11:30.648Z,10.63
2017-10-02T15:13:57.332Z,11.52
2017-10-02T15:16:24.031Z,10.05
2017-10-02T15:18:50.703Z,10.05
2017-10-02T15:21:17.420Z,9.95
2017-10-02T15:23:44.087Z,11.52
2017-10-02T15:26:10.775Z,11.52
2017-10-02T15:28:37.448Z,10.38
2017-10-02T15:31:04.143Z,11.48
2017-10-02T15:33:30.807Z,11.23
2017-10-02T15:35:57.544Z,10.25
2017-10-02T15:38:24.208Z,10.68
2017-10-02T15:40:50.895Z,10.60
2017-10-02T15:43:17.563Z,10.30
2017-10-02T15:45:44.279Z,10.68
2017-10-02T15:48:10.960Z,11.68
2017-10-02T15:50:37.683Z,11.60
2017-10-02T15:53:04.350Z,11.40
2017-10-02T15:55:31.046Z,11.68
2017-10-02T15:57:57.746Z,11.18
2017-10-02T16:00:24.411Z,12.68
2017-10-02T16:02:51.076Z,11.75
2017-10-02T16:05:17.740Z,11.05
2017-10-02T16:07:44.416Z,10.50
2017-10-02T16:10:11.092Z,10.63
2017-10-02T16:12:37.761Z,10.10
2017-10-02T16:15:04.419Z,9.85
2017-10-02T16:17:31.080Z,9.88
2017-10-02T16:19:57.748Z,10.52
2017-10-02T16:22:24.443Z,10.20
2017-10-02T16:24:51.110Z,11.12
2017-10-02T16:27:17.799Z,10.60
2017-10-02T16:29:44.464Z,10.52
2017-10-02T16:32:11.179Z,10.45
2017-10-02T16:34:37.844Z,10.48
2017-10-02T16:37:04.533Z,10.85
2017-10-02T16:39:31.199Z,10.40
2017-10-02T16:41:57.887Z,10.20
2017-10-02T16:44:24.556Z,10.98
2017-10-02T16:46:51.247Z,10.10
2017-10-02T16:49:17.915Z,11.02
2017-10-02T16:51:44.599Z,9.40
2017-10-02T16:54:11.273Z,9.68
2017-10-02T16:56:38.065Z,10.15
2017-10-02T16:59:04.727Z,9.20
2017-10-02T17:01:31.414Z,8.15
2017-10-02T17:03:58.079Z,9.98
2017-10-02T17:06:24.768Z,8.52
2017-10-02T17:08:51.431Z,9.00
2017-10-02T17:11:18.115Z,8.05
2017-10-02T17:13:44.779Z,8.85
2017-10-02T17:16:11.451Z,9.50
2017-10-02T17:18:38.112Z,8.93
2017-10-02T17:21:04.775Z,9.57
2017-10-02T17:23:31.435Z,7.93
2017-10-02T17:25:58.121Z,8.63
2017-10-02T17:28:24.784Z,8.30
2017-10-02T17:30:51.447Z,9.30
2017-10-02T17:33:18.111Z,8.30
2017-10-02T17:35:44.772Z,8.43
2017-10-02T17:38:11.438Z,7.97
2017-10-02T17:40:38.103Z,7.97
2017-10-02T17:43:04.784Z,8.52
2017-10-02T17:45:31.448Z,7.90
2017-10-02T17:47:58.119Z,8.75
2017-10-02T17:50:24.779Z,7.72
2017-10-02T17:52:51.444Z,10.20
2017-10-02T17:55:18.115Z,8.50
2017-10-02T17:57:44.803Z,8.40
2017-10-02T18:00:11.467Z,8.02
2017-10-02T18:02:38.151Z,9.70
2017-10-02T18:05:04.810Z,8.07
2017-10-02T18:07:31.508Z,10.00
2017-10-02T18:09:58.172Z,8.95
2017-10-02T18:12:24.855Z,9.05
2017-10-02T18:14:51.519Z,8.73
2017-10-02T18:17:18.216Z,9.20
2017-10-02T18:19:44.878Z,11.05
2017-10-02T18:22:11.571Z,10.05
2017-10-02T18:24:38.226Z,9.48
2017-10-02T18:27:04.915Z,9.45
2017-10-02T18:29:31.576Z,9.10
2017-10-02T18:31:58.266Z,8.68
2017-10-02T18:34:24.927Z,9.82
2017-10-02T18:36:51.583Z,9.77
2017-10-02T18:39:18.251Z,8.80
2017-10-02T18:41:44.911Z,9.05
2017-10-02T18:44:11.575Z,8.80
2017-10-02T18:46:38.239Z,7.43
2017-10-02T18:49:04.904Z,8.30
2017-10-02T18:51:31.576Z,8.05
2017-10-02T18:53:58.260Z,8.55
2017-10-02T18:56:24.923Z,7.28
2017-10-02T18:58:51.585Z,8.25
2017-10-02T19:01:18.256Z,9.13
2017-10-02T19:03:44.924Z,8.65
2017-10-02T19:06:11.839Z,7.90
2017-10-02T19:08:38.503Z,8.00
2017-10-02T19:11:05.163Z,8.50
2017-10-02T19:13:31.831Z,9.23
2017-10-02T19:15:58.507Z,8.25
2017-10-02T19:18:25.191Z,8.80
2017-10-02T19:20:51.852Z,9.27
2017-10-02T19:23:18.512Z,8.50
2017-10-02T19:25:45.176Z,8.30
2017-10-02T19:28:11.840Z,8.13
2017-10-02T19:30:38.520Z,9.73
2017-10-02T19:33:05.183Z,8.15
2017-10-02T19:35:31.864Z,8.57
2017-10-02T19:37:58.551Z,8.30
2017-10-02T19:40:25.211Z,8.75
2017-10-02T19:42:51.904Z,7.90
2017-10-02T19:45:18.572Z,7.47
2017-10-02T19:47:45.259Z,8.23
2017-10-02T19:50:11.939Z,9.13
2017-10-02T19:52:38.599Z,9.00
2017-10-02T19:55:05.265Z,8.88
2017-10-02T19:57:31.985Z,8.27
2017-10-02T19:59:58.718Z,8.70
2017-10-02T20:02:25.411Z,6.65
2017-10-02T20:04:52.075Z,8.38
2017-10-02T20:07:18.741Z,6.32
2017-10-02T20:09:45.422Z,6.97
2017-10-02T20:12:12.088Z,7.55
2017-10-02T20:14:38.756Z,6.50
2017-10-02T20:17:05.414Z,6.70
2017-10-02T20:19:32.079Z,7.40
2017-10-02T20:21:58.748Z,7.10
2017-10-02T20:24:25.414Z,8.55
2017-10-02T20:26:52.075Z,6.82
2017-10-02T20:29:18.742Z,7.35
2017-10-02T20:31:45.400Z,7.85
2017-10-02T20:34:12.060Z,7.28
2017-10-02T20:36:38.720Z,7.10
2017-10-02T20:39:05.433Z,7.00
2017-10-02T20:41:32.108Z,7.68
2017-10-02T20:43:58.812Z,7.82
2017-10-02T20:46:25.495Z,8.55
2017-10-02T20:48:52.183Z,8.10
2017-10-02T20:51:18.863Z,6.90
2017-10-02T20:53:45.547Z,7.65
2017-10-02T20:56:12.232Z,7.53
2017-10-02T20:58:38.939Z,7.50
2017-10-02T21:01:05.599Z,7.87
2017-10-02T21:03:32.291Z,8.77
2017-10-02T21:05:58.955Z,7.32
2017-10-02T21:08:25.716Z,7.90
2017-10-02T21:10:52.420Z,7.78
2017-10-02T21:13:19.099Z,7.72
2017-10-02T21:15:45.779Z,7.37
2017-10-02T21:18:12.483Z,7.62
2017-10-02T21:20:39.162Z,8.43
2017-10-02T21:23:05.823Z,7.90
2017-10-02T21:25:32.523Z,8.20
2017-10-02T21:27:59.194Z,6.97
2017-10-02T21:30:25.936Z,7.07
2017-10-02T21:32:52.616Z,7.07
2017-10-02T21:35:19.331Z,8.38
2017-10-02T21:37:45.999Z,7.78
2017-10-02T21:40:12.742Z,7.35
2017-10-02T21:42:39.404Z,8.63
2017-10-02T21:45:06.099Z,8.55
2017-10-02T21:47:32.763Z,7.22
2017-10-02T21:49:59.448Z,6.68
2017-10-02T21:52:26.143Z,7.05
2017-10-02T21:54:52.831Z,7.53
2017-10-02T21:57:19.579Z,7.82
2017-10-02T21:59:46.323Z,7.10
2017-10-02T22:02:12.982Z,8.15
2017-10-02T22:04:39.666Z,7.68
2017-10-02T22:07:06.379Z,6.82
2017-10-02T22:09:33.076Z,8.13
2017-10-02T22:11:59.794Z,7.07
2017-10-02T22:14:26.487Z,7.05
2017-10-02T22:16:53.195Z,6.95
2017-10-02T22:19:19.887Z,7.65
2017-10-02T22:21:46.551Z,7.68
2017-10-02T22:24:13.251Z,6.53
2017-10-02T22:26:39.940Z,7.72
2017-10-02T22:29:06.603Z,7.18
2017-10-02T22:31:33.263Z,7.43
2017-10-02T22:33:59.922Z,6.60
2017-10-02T22:36:26.578Z,7.78
2017-10-02T22:38:53.243Z,7.70
2017-10-02T22:41:19.970Z,7.55
2017-10-02T22:43:46.631Z,7.12
2017-10-02T22:46:13.292Z,6.45
2017-10-02T22:48:39.962Z,7.97
2017-10-02T22:51:06.623Z,6.78
2017-10-02T22:53:33.282Z,8.63
2017-10-02T22:55:59.948Z,9.18
2017-10-02T22:58:26.607Z,6.40
2017-10-02T23:00:53.292Z,6.78
2017-10-02T23:03:19.955Z,6.62
2017-10-02T23:05:46.639Z,6.10
2017-10-02T23:08:13.300Z,7.45
2017-10-02T23:10:40.823Z,7.43
2017-10-02T23:13:07.483Z,7.10
